sensor_id;sensor_type;location;lat;lon;timestamp;P1;durP1;ratioP1;P2;durP2;ratioP2
55756;SDS011;41676;44.610;44.078;2024-03-22T00:00:06;23.80;;;15.43;;
55756;SDS011;41676;44.610;44.078;2024-03-22T00:05:11;23.73;;;15.52;;
55756;SDS011;41676;44.610;44.078;2024-03-22T00:10:12;27.08;;;16.38;;
55756;SDS011;41676;44.610;44.078;2024-03-22T00:15:14;25.55;;;16.73;;
55756;SDS011;41676;44.610;44.078;2024-03-22T00:20:14;25.77;;;16.08;;
55756;SDS011;41676;44.610;44.078;2024-03-22T00:25:15;28.63;;;17.50;;
55756;SDS011;41676;44.610;44.078;2024-03-22T00:30:16;27.25;;;16.42;;
55756;SDS011;41676;44.610;44.078;2024-03-22T00:35:17;30.50;;;17.13;;
55756;SDS011;41676;44.610;44.078;2024-03-22T00:40:17;28.42;;;17.23;;
55756;SDS011;41676;44.610;44.078;2024-03-22T00:45:18;29.08;;;17.33;;
55756;SDS011;41676;44.610;44.078;2024-03-22T00:50:19;29.25;;;18.23;;
55756;SDS011;41676;44.610;44.078;2024-03-22T00:55:20;29.85;;;17.83;;
55756;SDS011;41676;44.610;44.078;2024-03-22T01:00:21;28.15;;;17.35;;
55756;SDS011;41676;44.610;44.078;2024-03-22T01:05:21;33.42;;;17.67;;
55756;SDS011;41676;44.610;44.078;2024-03-22T01:10:22;34.67;;;18.92;;
55756;SDS011;41676;44.610;44.078;2024-03-22T01:15:23;30.92;;;19.55;;
55756;SDS011;41676;44.610;44.078;2024-03-22T01:20:24;29.45;;;17.25;;
55756;SDS011;41676;44.610;44.078;2024-03-22T01:25:25;31.73;;;18.80;;
55756;SDS011;41676;44.610;44.078;2024-03-22T01:30:25;35.60;;;18.73;;
55756;SDS011;41676;44.610;44.078;2024-03-22T01:40:30;33.47;;;18.65;;
55756;SDS011;41676;44.610;44.078;2024-03-22T01:45:32;35.97;;;19.67;;
55756;SDS011;41676;44.610;44.078;2024-03-22T01:50:34;36.08;;;19.70;;
55756;SDS011;41676;44.610;44.078;2024-03-22T01:55:35;39.50;;;21.23;;
55756;SDS011;41676;44.610;44.078;2024-03-22T02:00:36;39.30;;;21.45;;
55756;SDS011;41676;44.610;44.078;2024-03-22T02:05:36;35.70;;;21.35;;
55756;SDS011;41676;44.610;44.078;2024-03-22T02:10:37;30.92;;;19.23;;
55756;SDS011;41676;44.610;44.078;2024-03-22T02:15:38;36.28;;;20.55;;
55756;SDS011;41676;44.610;44.078;2024-03-22T02:20:39;35.70;;;19.67;;
55756;SDS011;41676;44.610;44.078;2024-03-22T02:25:40;34.88;;;19.98;;
55756;SDS011;41676;44.610;44.078;2024-03-22T02:30:41;31.38;;;20.23;;
55756;SDS011;41676;44.610;44.078;2024-03-22T02:35:42;33.78;;;19.65;;
55756;SDS011;41676;44.610;44.078;2024-03-22T02:40:43;41.83;;;20.70;;
55756;SDS011;41676;44.610;44.078;2024-03-22T02:45:44;35.65;;;19.65;;
55756;SDS011;41676;44.610;44.078;2024-03-22T02:50:46;30.60;;;18.65;;
55756;SDS011;41676;44.610;44.078;2024-03-22T02:55:47;34.45;;;19.13;;
55756;SDS011;41676;44.610;44.078;2024-03-22T03:00:48;33.92;;;19.63;;
55756;SDS011;41676;44.610;44.078;2024-03-22T03:05:48;28.33;;;17.83;;
55756;SDS011;41676;44.610;44.078;2024-03-22T03:10:49;34.13;;;18.30;;
55756;SDS011;41676;44.610;44.078;2024-03-22T03:15:50;26.58;;;16.70;;
55756;SDS011;41676;44.610;44.078;2024-03-22T03:20:51;31.13;;;17.52;;
55756;SDS011;41676;44.610;44.078;2024-03-22T03:25:52;31.52;;;17.00;;
55756;SDS011;41676;44.610;44.078;2024-03-22T03:30:52;31.77;;;15.32;;
55756;SDS011;41676;44.610;44.078;2024-03-22T03:35:53;25.67;;;14.68;;
55756;SDS011;41676;44.610;44.078;2024-03-22T03:40:54;26.65;;;12.98;;
55756;SDS011;41676;44.610;44.078;2024-03-22T03:45:55;27.23;;;13.25;;
55756;SDS011;41676;44.610;44.078;2024-03-22T03:50:56;21.98;;;13.70;;
55756;SDS011;41676;44.610;44.078;2024-03-22T03:56:02;27.20;;;15.48;;
55756;SDS011;41676;44.610;44.078;2024-03-22T04:01:07;32.25;;;17.08;;
55756;SDS011;41676;44.610;44.078;2024-03-22T04:06:08;34.63;;;18.70;;
55756;SDS011;41676;44.610;44.078;2024-03-22T04:11:09;28.60;;;17.08;;
55756;SDS011;41676;44.610;44.078;2024-03-22T04:16:10;42.15;;;21.95;;
55756;SDS011;41676;44.610;44.078;2024-03-22T04:21:11;38.42;;;23.55;;
55756;SDS011;41676;44.610;44.078;2024-03-22T04:26:12;36.85;;;23.30;;
55756;SDS011;41676;44.610;44.078;2024-03-22T04:31:13;40.80;;;23.70;;
55756;SDS011;41676;44.610;44.078;2024-03-22T04:36:15;35.42;;;21.85;;
55756;SDS011;41676;44.610;44.078;2024-03-22T04:41:16;34.83;;;19.92;;
55756;SDS011;41676;44.610;44.078;2024-03-22T04:46:16;31.77;;;19.23;;
55756;SDS011;41676;44.610;44.078;2024-03-22T04:51:17;31.10;;;19.88;;
55756;SDS011;41676;44.610;44.078;2024-03-22T04:56:18;30.40;;;19.65;;
55756;SDS011;41676;44.610;44.078;2024-03-22T05:01:19;31.67;;;18.88;;
55756;SDS011;41676;44.610;44.078;2024-03-22T05:06:20;27.77;;;18.88;;
55756;SDS011;41676;44.610;44.078;2024-03-22T05:11:20;27.00;;;16.73;;
55756;SDS011;41676;44.610;44.078;2024-03-22T05:16:21;26.23;;;17.52;;
55756;SDS011;41676;44.610;44.078;2024-03-22T05:21:23;26.58;;;15.43;;
55756;SDS011;41676;44.610;44.078;2024-03-22T05:26:23;24.58;;;16.42;;
55756;SDS011;41676;44.610;44.078;2024-03-22T05:31:24;26.30;;;16.17;;
55756;SDS011;41676;44.610;44.078;2024-03-22T05:36:25;23.52;;;13.65;;
55756;SDS011;41676;44.610;44.078;2024-03-22T05:41:26;19.75;;;12.18;;
55756;SDS011;41676;44.610;44.078;2024-03-22T05:46:27;29.10;;;14.93;;
55756;SDS011;41676;44.610;44.078;2024-03-22T05:51:27;24.38;;;14.95;;
55756;SDS011;41676;44.610;44.078;2024-03-22T05:56:30;24.15;;;14.52;;
55756;SDS011;41676;44.610;44.078;2024-03-22T06:01:31;21.65;;;12.63;;
55756;SDS011;41676;44.610;44.078;2024-03-22T06:06:33;21.60;;;13.80;;
55756;SDS011;41676;44.610;44.078;2024-03-22T06:11:35;22.73;;;14.35;;
55756;SDS011;41676;44.610;44.078;2024-03-22T06:16:36;23.23;;;13.68;;
55756;SDS011;41676;44.610;44.078;2024-03-22T06:21:36;18.35;;;13.18;;
55756;SDS011;41676;44.610;44.078;2024-03-22T06:26:37;17.30;;;10.30;;
55756;SDS011;41676;44.610;44.078;2024-03-22T06:31:38;16.92;;;12.52;;
55756;SDS011;41676;44.610;44.078;2024-03-22T06:36:39;18.98;;;12.48;;
55756;SDS011;41676;44.610;44.078;2024-03-22T06:41:40;17.92;;;11.82;;
55756;SDS011;41676;44.610;44.078;2024-03-22T06:46:41;15.23;;;11.40;;
55756;SDS011;41676;44.610;44.078;2024-03-22T06:51:41;19.13;;;11.20;;
55756;SDS011;41676;44.610;44.078;2024-03-22T06:56:42;20.58;;;10.65;;
55756;SDS011;41676;44.610;44.078;2024-03-22T07:01:43;14.15;;;9.73;;
55756;SDS011;41676;44.610;44.078;2024-03-22T07:06:44;16.40;;;9.73;;
55756;SDS011;41676;44.610;44.078;2024-03-22T07:11:45;13.15;;;9.50;;
55756;SDS011;41676;44.610;44.078;2024-03-22T07:16:46;16.90;;;10.68;;
55756;SDS011;41676;44.610;44.078;2024-03-22T07:21:47;13.43;;;9.35;;
55756;SDS011;41676;44.610;44.078;2024-03-22T07:26:57;14.38;;;9.27;;
55756;SDS011;41676;44.610;44.078;2024-03-22T07:31:57;14.27;;;9.43;;
55756;SDS011;41676;44.610;44.078;2024-03-22T07:36:58;18.38;;;10.35;;
55756;SDS011;41676;44.610;44.078;2024-03-22T07:41:59;19.17;;;9.75;;
55756;SDS011;41676;44.610;44.078;2024-03-22T07:47:00;16.67;;;10.32;;
55756;SDS011;41676;44.610;44.078;2024-03-22T07:52:00;75.03;;;53.63;;
55756;SDS011;41676;44.610;44.078;2024-03-22T07:57:01;18.85;;;12.80;;
55756;SDS011;41676;44.610;44.078;2024-03-22T08:02:02;22.92;;;14.57;;
55756;SDS011;41676;44.610;44.078;2024-03-22T08:07:03;22.65;;;10.77;;
55756;SDS011;41676;44.610;44.078;2024-03-22T08:12:04;17.25;;;10.07;;
55756;SDS011;41676;44.610;44.078;2024-03-22T08:17:07;14.18;;;9.85;;
55756;SDS011;41676;44.610;44.078;2024-03-22T08:22:09;17.13;;;9.13;;
55756;SDS011;41676;44.610;44.078;2024-03-22T08:27:10;19.48;;;11.07;;
55756;SDS011;41676;44.610;44.078;2024-03-22T08:32:11;17.73;;;12.13;;
55756;SDS011;41676;44.610;44.078;2024-03-22T08:37:12;18.75;;;10.27;;
55756;SDS011;41676;44.610;44.078;2024-03-22T08:42:12;9.98;;;6.35;;
55756;SDS011;41676;44.610;44.078;2024-03-22T08:47:13;15.70;;;8.13;;
55756;SDS011;41676;44.610;44.078;2024-03-22T08:52:14;13.38;;;8.60;;
55756;SDS011;41676;44.610;44.078;2024-03-22T08:57:14;12.77;;;7.10;;
55756;SDS011;41676;44.610;44.078;2024-03-22T09:02:15;13.35;;;8.15;;
55756;SDS011;41676;44.610;44.078;2024-03-22T09:07:16;15.68;;;8.98;;
55756;SDS011;41676;44.610;44.078;2024-03-22T09:12:18;10.75;;;6.60;;
55756;SDS011;41676;44.610;44.078;2024-03-22T09:17:19;12.25;;;7.35;;
55756;SDS011;41676;44.610;44.078;2024-03-22T09:22:20;10.90;;;6.78;;
55756;SDS011;41676;44.610;44.078;2024-03-22T09:27:21;10.48;;;5.55;;
55756;SDS011;41676;44.610;44.078;2024-03-22T09:32:21;10.13;;;6.20;;
55756;SDS011;41676;44.610;44.078;2024-03-22T09:37:22;16.88;;;6.43;;
55756;SDS011;41676;44.610;44.078;2024-03-22T09:42:23;11.85;;;6.47;;
55756;SDS011;41676;44.610;44.078;2024-03-22T09:47:25;10.77;;;6.45;;
55756;SDS011;41676;44.610;44.078;2024-03-22T09:52:27;11.18;;;6.90;;
55756;SDS011;41676;44.610;44.078;2024-03-22T09:57:28;11.52;;;6.30;;
55756;SDS011;41676;44.610;44.078;2024-03-22T10:02:31;26.50;;;15.77;;
55756;SDS011;41676;44.610;44.078;2024-03-22T10:07:32;22.88;;;12.25;;
55756;SDS011;41676;44.610;44.078;2024-03-22T10:12:33;9.82;;;5.72;;
55756;SDS011;41676;44.610;44.078;2024-03-22T10:17:34;19.98;;;9.30;;
55756;SDS011;41676;44.610;44.078;2024-03-22T10:22:35;15.85;;;8.23;;
55756;SDS011;41676;44.610;44.078;2024-03-22T10:27:39;17.70;;;9.85;;
55756;SDS011;41676;44.610;44.078;2024-03-22T10:37:42;35.30;;;20.58;;
55756;SDS011;41676;44.610;44.078;2024-03-22T10:42:43;72.85;;;36.10;;
55756;SDS011;41676;44.610;44.078;2024-03-22T10:47:44;91.78;;;40.63;;
55756;SDS011;41676;44.610;44.078;2024-03-22T10:52:49;70.10;;;34.40;;
55756;SDS011;41676;44.610;44.078;2024-03-22T10:57:52;85.18;;;43.45;;
55756;SDS011;41676;44.610;44.078;2024-03-22T11:02:53;46.70;;;25.20;;
55756;SDS011;41676;44.610;44.078;2024-03-22T11:08:01;34.47;;;13.93;;
55756;SDS011;41676;44.610;44.078;2024-03-22T11:13:07;50.17;;;25.13;;
55756;SDS011;41676;44.610;44.078;2024-03-22T11:18:09;24.83;;;13.55;;
55756;SDS011;41676;44.610;44.078;2024-03-22T11:23:10;23.85;;;9.68;;
55756;SDS011;41676;44.610;44.078;2024-03-22T11:28:10;19.67;;;10.60;;
55756;SDS011;41676;44.610;44.078;2024-03-22T11:33:12;13.77;;;8.07;;
55756;SDS011;41676;44.610;44.078;2024-03-22T11:38:12;40.08;;;16.27;;
55756;SDS011;41676;44.610;44.078;2024-03-22T11:43:13;44.45;;;20.42;;
55756;SDS011;41676;44.610;44.078;2024-03-22T11:48:17;26.13;;;12.87;;
55756;SDS011;41676;44.610;44.078;2024-03-22T11:53:17;14.02;;;7.47;;
55756;SDS011;41676;44.610;44.078;2024-03-22T11:58:18;13.48;;;8.50;;
55756;SDS011;41676;44.610;44.078;2024-03-22T12:03:19;15.80;;;8.10;;
55756;SDS011;41676;44.610;44.078;2024-03-22T12:08:20;21.42;;;9.27;;
55756;SDS011;41676;44.610;44.078;2024-03-22T12:13:21;21.00;;;9.35;;
55756;SDS011;41676;44.610;44.078;2024-03-22T12:18:21;19.42;;;8.70;;
55756;SDS011;41676;44.610;44.078;2024-03-22T12:23:22;21.50;;;8.93;;
55756;SDS011;41676;44.610;44.078;2024-03-22T12:28:24;19.52;;;10.40;;
55756;SDS011;41676;44.610;44.078;2024-03-22T12:33:25;19.80;;;8.98;;
55756;SDS011;41676;44.610;44.078;2024-03-22T12:38:26;24.13;;;9.85;;
55756;SDS011;41676;44.610;44.078;2024-03-22T12:43:27;18.75;;;9.23;;
55756;SDS011;41676;44.610;44.078;2024-03-22T12:48:28;20.10;;;10.63;;
55756;SDS011;41676;44.610;44.078;2024-03-22T12:53:28;24.80;;;10.68;;
55756;SDS011;41676;44.610;44.078;2024-03-22T12:58:30;28.10;;;10.20;;
55756;SDS011;41676;44.610;44.078;2024-03-22T13:03:34;20.15;;;9.65;;
55756;SDS011;41676;44.610;44.078;2024-03-22T13:08:35;19.10;;;9.90;;
55756;SDS011;41676;44.610;44.078;2024-03-22T13:13:35;20.58;;;10.55;;
55756;SDS011;41676;44.610;44.078;2024-03-22T13:18:36;23.88;;;11.65;;
55756;SDS011;41676;44.610;44.078;2024-03-22T13:23:37;19.65;;;9.45;;
55756;SDS011;41676;44.610;44.078;2024-03-22T13:28:38;21.92;;;9.18;;
55756;SDS011;41676;44.610;44.078;2024-03-22T13:33:39;19.00;;;10.25;;
55756;SDS011;41676;44.610;44.078;2024-03-22T13:38:39;15.07;;;8.38;;
55756;SDS011;41676;44.610;44.078;2024-03-22T13:43:40;20.15;;;8.75;;
55756;SDS011;41676;44.610;44.078;2024-03-22T13:48:43;12.00;;;7.18;;
55756;SDS011;41676;44.610;44.078;2024-03-22T13:53:44;15.73;;;6.75;;
55756;SDS011;41676;44.610;44.078;2024-03-22T13:58:44;16.15;;;7.32;;
55756;SDS011;41676;44.610;44.078;2024-03-22T14:03:45;13.10;;;6.97;;
55756;SDS011;41676;44.610;44.078;2024-03-22T14:08:46;12.63;;;6.82;;
55756;SDS011;41676;44.610;44.078;2024-03-22T14:13:47;12.88;;;7.95;;
55756;SDS011;41676;44.610;44.078;2024-03-22T14:18:49;18.33;;;9.05;;
55756;SDS011;41676;44.610;44.078;2024-03-22T14:23:51;17.38;;;9.80;;
55756;SDS011;41676;44.610;44.078;2024-03-22T14:28:52;29.63;;;11.73;;
55756;SDS011;41676;44.610;44.078;2024-03-22T14:33:53;17.15;;;8.20;;
55756;SDS011;41676;44.610;44.078;2024-03-22T14:38:54;15.57;;;7.97;;
55756;SDS011;41676;44.610;44.078;2024-03-22T14:43:54;17.95;;;9.65;;
55756;SDS011;41676;44.610;44.078;2024-03-22T14:48:55;18.50;;;8.77;;
55756;SDS011;41676;44.610;44.078;2024-03-22T14:53:56;13.00;;;7.30;;
55756;SDS011;41676;44.610;44.078;2024-03-22T14:58:57;14.63;;;7.72;;
55756;SDS011;41676;44.610;44.078;2024-03-22T15:04:00;13.77;;;7.30;;
55756;SDS011;41676;44.610;44.078;2024-03-22T15:09:00;15.45;;;7.65;;
55756;SDS011;41676;44.610;44.078;2024-03-22T15:14:09;14.75;;;8.07;;
55756;SDS011;41676;44.610;44.078;2024-03-22T15:19:10;18.75;;;8.10;;
55756;SDS011;41676;44.610;44.078;2024-03-22T15:24:11;13.82;;;7.78;;
55756;SDS011;41676;44.610;44.078;2024-03-22T15:29:12;11.35;;;6.45;;
55756;SDS011;41676;44.610;44.078;2024-03-22T15:34:12;16.40;;;8.57;;
55756;SDS011;41676;44.610;44.078;2024-03-22T15:39:13;11.82;;;6.75;;
55756;SDS011;41676;44.610;44.078;2024-03-22T15:44:15;15.90;;;8.50;;
55756;SDS011;41676;44.610;44.078;2024-03-22T15:49:15;13.35;;;7.35;;
55756;SDS011;41676;44.610;44.078;2024-03-22T15:54:16;9.88;;;5.25;;
55756;SDS011;41676;44.610;44.078;2024-03-22T15:59:17;20.17;;;8.90;;
55756;SDS011;41676;44.610;44.078;2024-03-22T16:04:18;22.35;;;11.85;;
55756;SDS011;41676;44.610;44.078;2024-03-22T16:09:21;22.73;;;12.60;;
55756;SDS011;41676;44.610;44.078;2024-03-22T16:14:22;18.17;;;10.15;;
55756;SDS011;41676;44.610;44.078;2024-03-22T16:19:23;24.38;;;12.77;;
55756;SDS011;41676;44.610;44.078;2024-03-22T16:24:24;19.75;;;10.18;;
55756;SDS011;41676;44.610;44.078;2024-03-22T16:29:24;19.73;;;9.77;;
55756;SDS011;41676;44.610;44.078;2024-03-22T16:34:25;20.92;;;11.40;;
55756;SDS011;41676;44.610;44.078;2024-03-22T16:39:26;24.98;;;12.52;;
55756;SDS011;41676;44.610;44.078;2024-03-22T16:44:27;23.45;;;12.00;;
55756;SDS011;41676;44.610;44.078;2024-03-22T16:49:28;22.33;;;11.25;;
55756;SDS011;41676;44.610;44.078;2024-03-22T16:54:29;23.45;;;11.98;;
55756;SDS011;41676;44.610;44.078;2024-03-22T16:59:30;25.70;;;12.45;;
55756;SDS011;41676;44.610;44.078;2024-03-22T17:04:30;22.55;;;11.80;;
55756;SDS011;41676;44.610;44.078;2024-03-22T17:09:31;18.10;;;8.45;;
55756;SDS011;41676;44.610;44.078;2024-03-22T17:14:32;20.55;;;10.65;;
55756;SDS011;41676;44.610;44.078;2024-03-22T17:19:33;25.25;;;9.40;;
55756;SDS011;41676;44.610;44.078;2024-03-22T17:24:34;23.83;;;12.07;;
55756;SDS011;41676;44.610;44.078;2024-03-22T17:29:34;22.20;;;11.23;;
55756;SDS011;41676;44.610;44.078;2024-03-22T17:34:35;23.25;;;10.90;;
55756;SDS011;41676;44.610;44.078;2024-03-22T17:39:37;18.95;;;11.52;;
55756;SDS011;41676;44.610;44.078;2024-03-22T17:44:38;23.35;;;12.52;;
55756;SDS011;41676;44.610;44.078;2024-03-22T17:49:39;23.15;;;11.75;;
55756;SDS011;41676;44.610;44.078;2024-03-22T17:54:39;18.23;;;10.60;;
55756;SDS011;41676;44.610;44.078;2024-03-22T17:59:40;20.80;;;11.15;;
55756;SDS011;41676;44.610;44.078;2024-03-22T18:04:41;21.83;;;11.05;;
55756;SDS011;41676;44.610;44.078;2024-03-22T18:09:42;22.55;;;12.43;;
55756;SDS011;41676;44.610;44.078;2024-03-22T18:14:43;23.67;;;11.90;;
55756;SDS011;41676;44.610;44.078;2024-03-22T18:19:44;25.90;;;12.25;;
55756;SDS011;41676;44.610;44.078;2024-03-22T18:24:44;18.67;;;10.20;;
55756;SDS011;41676;44.610;44.078;2024-03-22T18:29:45;22.13;;;11.13;;
55756;SDS011;41676;44.610;44.078;2024-03-22T18:34:46;41.13;;;18.67;;
55756;SDS011;41676;44.610;44.078;2024-03-22T18:39:47;32.42;;;15.82;;
55756;SDS011;41676;44.610;44.078;2024-03-22T18:44:48;15.63;;;8.45;;
55756;SDS011;41676;44.610;44.078;2024-03-22T18:49:49;19.27;;;9.40;;
55756;SDS011;41676;44.610;44.078;2024-03-22T18:54:56;21.65;;;10.95;;
55756;SDS011;41676;44.610;44.078;2024-03-22T18:59:59;20.42;;;10.20;;
55756;SDS011;41676;44.610;44.078;2024-03-22T19:05:00;18.73;;;9.80;;
55756;SDS011;41676;44.610;44.078;2024-03-22T19:10:01;19.98;;;10.25;;
55756;SDS011;41676;44.610;44.078;2024-03-22T19:15:02;19.48;;;10.70;;
55756;SDS011;41676;44.610;44.078;2024-03-22T19:20:03;23.73;;;10.40;;
55756;SDS011;41676;44.610;44.078;2024-03-22T19:25:05;22.02;;;10.18;;
55756;SDS011;41676;44.610;44.078;2024-03-22T19:30:07;22.23;;;12.38;;
55756;SDS011;41676;44.610;44.078;2024-03-22T19:35:09;20.67;;;10.10;;
55756;SDS011;41676;44.610;44.078;2024-03-22T19:40:09;18.30;;;10.18;;
55756;SDS011;41676;44.610;44.078;2024-03-22T19:45:11;15.18;;;8.52;;
55756;SDS011;41676;44.610;44.078;2024-03-22T19:50:11;16.70;;;7.95;;
55756;SDS011;41676;44.610;44.078;2024-03-22T19:55:12;16.58;;;8.60;;
55756;SDS011;41676;44.610;44.078;2024-03-22T20:00:13;19.85;;;8.38;;
55756;SDS011;41676;44.610;44.078;2024-03-22T20:05:14;16.67;;;8.43;;
55756;SDS011;41676;44.610;44.078;2024-03-22T20:10:15;13.20;;;7.80;;
55756;SDS011;41676;44.610;44.078;2024-03-22T20:15:16;11.65;;;7.07;;
55756;SDS011;41676;44.610;44.078;2024-03-22T20:20:21;18.58;;;11.98;;
55756;SDS011;41676;44.610;44.078;2024-03-22T20:25:22;28.08;;;18.17;;
55756;SDS011;41676;44.610;44.078;2024-03-22T20:30:23;15.60;;;9.73;;
55756;SDS011;41676;44.610;44.078;2024-03-22T20:35:24;12.50;;;8.05;;
